createdAt,value
2022-07-27T00:00:01.111Z,100377.90
2022-07-27T00:02:53.116Z,100373.75
2022-07-27T00:05:25.249Z,100372.55
2022-07-27T00:07:57.391Z,100371.87
2022-07-27T00:10:29.078Z,100370.54
2022-07-27T00:13:00.867Z,100372.91
2022-07-27T00:15:34.070Z,100372.87
2022-07-27T00:18:06.156Z,100370.77
2022-07-27T00:20:39.852Z,100366.82
2022-07-27T00:23:11.636Z,100359.73
2022-07-27T00:25:43.336Z,100352.31
2022-07-27T00:28:15.094Z,100355.08
2022-07-27T00:30:46.862Z,100358.68
2022-07-27T00:33:18.803Z,100362.52
2022-07-27T00:35:50.615Z,100362.70
2022-07-27T00:38:22.426Z,100363.27
2022-07-27T00:40:54.157Z,100367.20
2022-07-27T00:43:25.864Z,100369.35
2022-07-27T00:45:58.135Z,100378.02
2022-07-27T00:48:30.210Z,100378.97
2022-07-27T00:51:02.073Z,100377.39
2022-07-27T00:53:34.089Z,100373.73
2022-07-27T00:56:06.956Z,100376.95
2022-07-27T00:58:40.711Z,100384.99
2022-07-27T01:01:12.461Z,100380.05
2022-07-27T01:03:44.268Z,100379.19
2022-07-27T01:06:24.880Z,100379.28
2022-07-27T01:09:14.390Z,100371.95
2022-07-27T01:11:46.950Z,100371.11
2022-07-27T01:14:19.365Z,100374.50
2022-07-27T01:16:52.341Z,100378.85
2022-07-27T01:19:24.686Z,100370.71
2022-07-27T01:21:56.534Z,100372.73
2022-07-27T01:24:28.702Z,100372.46
2022-07-27T01:27:01.830Z,100375.37
2022-07-27T01:29:35.036Z,100373.41
2022-07-27T01:32:07.839Z,100370.42
2022-07-27T01:34:38.088Z,100368.98
2022-07-27T01:37:09.743Z,100368.48
2022-07-27T01:39:41.642Z,100371.14
2022-07-27T01:42:13.635Z,100368.41
2022-07-27T01:44:45.291Z,100364.41
2022-07-27T01:47:17.523Z,100362.14
2022-07-27T01:49:50.301Z,100360.67
2022-07-27T01:52:22.359Z,100361.56
2022-07-27T01:54:54.339Z,100363.68
2022-07-27T01:57:26.105Z,100368.12
2022-07-27T01:59:58.227Z,100367.05
2022-07-27T02:02:29.969Z,100373.22
2022-07-27T02:05:01.975Z,100377.91
2022-07-27T02:07:33.809Z,100382.17
2022-07-27T02:10:06.830Z,100384.35
2022-07-27T02:12:39.207Z,100389.14
2022-07-27T02:15:15.328Z,100387.69
2022-07-27T02:17:48.706Z,100388.59
2022-07-27T02:20:25.137Z,100386.02
2022-07-27T02:22:57.536Z,100391.14
2022-07-27T02:25:29.270Z,100387.11
2022-07-27T02:28:01.063Z,100384.80
2022-07-27T02:30:33.018Z,100386.86
2022-07-27T02:33:06.013Z,100386.88
2022-07-27T02:35:37.789Z,100388.11
2022-07-27T02:38:09.540Z,100389.55
2022-07-27T02:40:41.338Z,100401.44
2022-07-27T02:43:13.164Z,100398.68
2022-07-27T02:45:46.432Z,100399.98
2022-07-27T02:48:19.363Z,100406.43
2022-07-27T02:50:49.781Z,100408.48
2022-07-27T02:53:21.476Z,100409.08
2022-07-27T02:55:53.122Z,100409.53
2022-07-27T02:58:24.942Z,100408.61
2022-07-27T03:00:58.704Z,100408.60
2022-07-27T03:03:35.933Z,100409.15
2022-07-27T03:06:09.479Z,100414.92
2022-07-27T03:08:42.068Z,100416.80
2022-07-27T03:11:13.703Z,100426.70
2022-07-27T03:13:45.422Z,100430.20
2022-07-27T03:16:17.221Z,100426.48
2022-07-27T03:18:49.967Z,100429.71
2022-07-27T03:21:22.126Z,100429.85
2022-07-27T03:23:54.042Z,100433.46
2022-07-27T03:26:25.808Z,100430.91
2022-07-27T03:28:57.529Z,100431.21
2022-07-27T03:31:29.300Z,100432.64
2022-07-27T03:34:02.208Z,100430.84
2022-07-27T03:36:34.094Z,100432.50
2022-07-27T03:39:07.414Z,100435.09
2022-07-27T03:41:39.268Z,100436.23
2022-07-27T03:44:11.086Z,100440.56
2022-07-27T03:46:42.824Z,100441.30
2022-07-27T03:49:15.522Z,100443.69
2022-07-27T03:51:47.870Z,100441.20
2022-07-27T03:54:19.580Z,100440.02
2022-07-27T03:56:51.266Z,100434.58
2022-07-27T03:59:23.741Z,100433.59
2022-07-27T04:01:55.592Z,100432.73
2022-07-27T04:04:27.494Z,100435.77
2022-07-27T04:06:59.303Z,100430.70
2022-07-27T04:09:31.394Z,100430.55
2022-07-27T04:12:02.190Z,100424.05
2022-07-27T04:14:34.498Z,100426.17
2022-07-27T04:17:06.347Z,100424.65
2022-07-27T04:19:39.003Z,100420.69
2022-07-27T04:22:09.434Z,100424.28
2022-07-27T04:24:41.289Z,100425.73
2022-07-27T04:27:13.208Z,100423.95
2022-07-27T04:29:45.116Z,100426.02
2022-07-27T04:32:17.041Z,100425.73
2022-07-27T04:34:48.862Z,100423.73
2022-07-27T04:37:20.487Z,100429.69
2022-07-27T04:39:52.258Z,100431.84
2022-07-27T04:42:24.320Z,100425.29
2022-07-27T04:44:56.149Z,100423.85
2022-07-27T04:47:27.934Z,100431.86
2022-07-27T04:49:59.953Z,100426.41
2022-07-27T04:52:31.837Z,100420.89
2022-07-27T04:55:03.871Z,100424.15
2022-07-27T04:57:37.230Z,100427.42
2022-07-27T05:00:11.767Z,100433.09
2022-07-27T05:02:43.783Z,100429.48
2022-07-27T05:05:15.498Z,100433.48
2022-07-27T05:07:47.677Z,100441.41
2022-07-27T05:10:20.467Z,100445.98
2022-07-27T05:12:52.759Z,100440.52
2022-07-27T05:15:24.878Z,100439.23
2022-07-27T05:17:56.613Z,100443.24
2022-07-27T05:20:28.384Z,100443.83
2022-07-27T05:23:00.486Z,100441.14
2022-07-27T05:25:32.240Z,100443.58
2022-07-27T05:28:04.086Z,100445.48
2022-07-27T05:30:36.156Z,100457.30
2022-07-27T05:33:07.951Z,100462.70
2022-07-27T05:35:39.907Z,100466.71
2022-07-27T05:38:11.752Z,100469.20
2022-07-27T05:40:46.407Z,100471.68
2022-07-27T05:43:18.233Z,100470.30
2022-07-27T05:45:50.351Z,100474.46
2022-07-27T05:48:22.436Z,100481.92
2022-07-27T05:50:54.269Z,100482.84
2022-07-27T05:53:27.482Z,100487.64
2022-07-27T05:55:59.879Z,100489.33
2022-07-27T05:58:31.793Z,100495.36
2022-07-27T06:01:03.623Z,100495.85
2022-07-27T06:03:35.609Z,100492.54
2022-07-27T06:06:21.338Z,100486.40
2022-07-27T06:08:54.167Z,100488.94
2022-07-27T06:11:25.922Z,100496.23
2022-07-27T06:13:57.763Z,100490.83
2022-07-27T06:16:29.738Z,100497.67
2022-07-27T06:19:01.518Z,100502.92
2022-07-27T06:21:33.740Z,100501.89
2022-07-27T06:24:06.312Z,100502.04
2022-07-27T06:26:38.047Z,100505.09
2022-07-27T06:29:10.964Z,100508.07
2022-07-27T06:31:43.063Z,100508.58
2022-07-27T06:34:16.657Z,100506.36
2022-07-27T06:36:49.034Z,100514.09
2022-07-27T06:39:21.026Z,100515.70
2022-07-27T06:41:57.933Z,100514.23
2022-07-27T06:44:30.109Z,100510.83
2022-07-27T06:47:01.913Z,100508.74
2022-07-27T06:49:33.900Z,100509.55
2022-07-27T06:52:07.907Z,100506.35
2022-07-27T06:54:40.029Z,100507.79
2022-07-27T06:57:11.737Z,100508.70
2022-07-27T06:59:44.018Z,100504.55
2022-07-27T07:02:15.912Z,100506.97
2022-07-27T07:04:47.935Z,100511.00
2022-07-27T07:07:19.817Z,100509.22
2022-07-27T07:09:52.202Z,100509.88
2022-07-27T07:12:25.713Z,100510.48
2022-07-27T07:14:57.455Z,100514.46
2022-07-27T07:17:29.373Z,100513.73
2022-07-27T07:20:01.156Z,100515.61
2022-07-27T07:22:34.334Z,100513.89
2022-07-27T07:25:07.058Z,100515.67
2022-07-27T07:27:38.768Z,100518.10
2022-07-27T07:30:12.380Z,100518.73
2022-07-27T07:32:44.514Z,100515.85
2022-07-27T07:35:17.040Z,100517.57
2022-07-27T07:37:50.538Z,100522.61
2022-07-27T07:43:16.104Z,100518.37
2022-07-27T07:45:50.881Z,100513.96
2022-07-27T07:48:24.800Z,100510.52
2022-07-27T07:50:56.638Z,100518.25
2022-07-27T07:53:29.071Z,100521.17
2022-07-27T07:56:01.292Z,100521.30
2022-07-27T07:58:33.501Z,100523.38
2022-07-27T08:01:05.492Z,100523.96
2022-07-27T08:03:37.431Z,100517.17
2022-07-27T08:06:09.266Z,100512.59
2022-07-27T08:08:41.094Z,100516.62
2022-07-27T08:11:13.504Z,100512.86
2022-07-27T08:13:45.655Z,100514.45
2022-07-27T08:16:17.678Z,100509.96
2022-07-27T08:18:49.453Z,100508.27
2022-07-27T08:21:21.396Z,100519.79
2022-07-27T08:23:53.486Z,100518.77
2022-07-27T08:26:31.417Z,100513.83
2022-07-27T08:29:04.421Z,100513.52
2022-07-27T08:31:52.436Z,100523.67
2022-07-27T08:34:24.970Z,100520.33
2022-07-27T08:36:56.845Z,100517.56
2022-07-27T08:42:22.149Z,100515.83
2022-07-27T08:44:55.265Z,100515.20
2022-07-27T08:47:28.444Z,100515.13
2022-07-27T08:50:01.181Z,100515.05
2022-07-27T08:52:33.776Z,100527.05
2022-07-27T08:55:06.791Z,100517.61
2022-07-27T08:57:39.566Z,100513.41
2022-07-27T09:00:13.754Z,100520.23
2022-07-27T09:02:46.212Z,100516.48
2022-07-27T09:05:18.643Z,100517.86
2022-07-27T09:07:50.467Z,100520.34
2022-07-27T09:10:38.421Z,100515.88
2022-07-27T09:13:24.726Z,100510.77
2022-07-27T09:18:59.448Z,100514.20
2022-07-27T09:21:31.250Z,100520.23
2022-07-27T09:24:29.294Z,100518.88
2022-07-27T09:27:07.413Z,100514.84
2022-07-27T09:29:39.504Z,100512.58
2022-07-27T09:32:17.963Z,100511.30
2022-07-27T09:34:49.810Z,100504.49
2022-07-27T09:37:28.450Z,100505.13
2022-07-27T09:40:24.321Z,100503.08
2022-07-27T09:44:05.648Z,100501.88
2022-07-27T09:46:09.464Z,100496.50
2022-07-27T09:48:41.483Z,100499.33
2022-07-27T09:51:57.743Z,100502.55
2022-07-27T09:54:10.385Z,100505.96
2022-07-27T09:56:43.131Z,100502.30
2022-07-27T09:59:20.209Z,100502.98
2022-07-27T10:01:54.773Z,100498.48
2022-07-27T10:04:27.651Z,100495.14
2022-07-27T10:07:04.690Z,100503.72
2022-07-27T10:09:39.759Z,100503.61
2022-07-27T10:12:12.339Z,100508.91
2022-07-27T10:14:42.647Z,100517.33
2022-07-27T10:17:16.338Z,100515.48
2022-07-27T10:19:50.716Z,100520.39
2022-07-27T10:22:51.462Z,100520.80
2022-07-27T10:25:24.654Z,100516.43
2022-07-27T10:28:16.443Z,100526.53
2022-07-27T10:30:54.206Z,100523.40
2022-07-27T10:33:47.555Z,100522.30
2022-07-27T10:36:40.824Z,100518.29
2022-07-27T10:39:12.777Z,100523.70
2022-07-27T10:41:44.804Z,100524.90
2022-07-27T10:44:52.407Z,100523.88
2022-07-27T10:47:34.283Z,100533.97
2022-07-27T10:50:33.118Z,100524.24
2022-07-27T10:53:07.962Z,100531.63
2022-07-27T10:55:59.792Z,100529.45
2022-07-27T10:58:48.719Z,100519.83
2022-07-27T11:01:23.469Z,100518.73
2022-07-27T11:03:56.408Z,100507.67
2022-07-27T11:06:55.410Z,100516.16
2022-07-27T11:12:16.791Z,100519.46
2022-07-27T11:14:50.504Z,100506.91
2022-07-27T11:17:52.427Z,100501.13
2022-07-27T11:20:16.451Z,100506.36
2022-07-27T11:23:49.537Z,100511.37
2022-07-27T11:25:40.078Z,100512.02
2022-07-27T11:28:11.944Z,100511.17
2022-07-27T11:30:44.205Z,100510.59
2022-07-27T11:33:17.555Z,100504.95
2022-07-27T11:35:56.547Z,100502.74
2022-07-27T11:38:29.008Z,100499.27
2022-07-27T11:41:15.358Z,100508.23
2022-07-27T11:43:53.122Z,100525.08
2022-07-27T11:46:28.021Z,100509.46
2022-07-27T11:49:07.472Z,100512.63
2022-07-27T11:51:42.267Z,100515.95
2022-07-27T11:54:24.410Z,100520.69
2022-07-27T11:56:58.628Z,100520.13
2022-07-27T11:59:32.491Z,100526.21
2022-07-27T12:02:07.143Z,100525.06
2022-07-27T12:04:40.997Z,100529.73
2022-07-27T12:07:16.773Z,100521.67
2022-07-27T12:09:50.985Z,100522.63
2022-07-27T12:12:25.802Z,100519.58
2022-07-27T12:15:16.358Z,100521.35
2022-07-27T12:17:59.007Z,100533.68
2022-07-27T12:20:37.316Z,100534.30
2022-07-27T12:23:10.125Z,100532.72
2022-07-27T12:25:41.962Z,100534.33
2022-07-27T12:28:18.182Z,100530.71
2022-07-27T12:30:51.303Z,100524.38
2022-07-27T12:33:31.598Z,100536.73
2022-07-27T12:36:06.377Z,100530.26
2022-07-27T12:38:43.543Z,100527.56
2022-07-27T12:41:26.599Z,100525.56
2022-07-27T12:44:10.363Z,100524.62
2022-07-27T12:46:56.513Z,100527.80
2022-07-27T12:49:34.482Z,100527.81
2022-07-27T12:52:11.047Z,100519.39
2022-07-27T12:54:42.780Z,100514.33
2022-07-27T12:57:24.326Z,100505.65
2022-07-27T13:00:07.822Z,100520.23
2022-07-27T13:02:40.300Z,100525.17
2022-07-27T13:05:14.785Z,100511.19
2022-07-27T13:07:48.456Z,100511.66
2022-07-27T13:10:21.990Z,100506.40
2022-07-27T13:12:56.480Z,100504.23
2022-07-27T13:15:28.894Z,100504.35
2022-07-27T13:18:00.851Z,100509.89
2022-07-27T13:20:33.420Z,100515.88
2022-07-27T13:23:07.770Z,100508.25
2022-07-27T13:25:43.218Z,100515.39
2022-07-27T13:28:15.464Z,100519.90
2022-07-27T13:30:47.282Z,100521.54
2022-07-27T13:33:19.103Z,100525.88
2022-07-27T13:35:53.242Z,100523.18
2022-07-27T13:38:32.872Z,100519.73
2022-07-27T13:41:05.251Z,100514.21
2022-07-27T13:43:37.055Z,100509.57
2022-07-27T13:46:10.381Z,100503.66
2022-07-27T13:48:42.246Z,100506.08
2022-07-27T13:51:14.427Z,100507.71
2022-07-27T13:53:46.169Z,100512.84
2022-07-27T13:56:17.954Z,100512.52
2022-07-27T13:58:55.674Z,100514.09
2022-07-27T14:01:28.004Z,100521.30
2022-07-27T14:04:02.764Z,100519.51
2022-07-27T14:06:35.500Z,100522.52
2022-07-27T14:09:08.838Z,100515.73
2022-07-27T14:11:51.031Z,100516.90
2022-07-27T14:14:26.833Z,100516.80
2022-07-27T14:16:59.057Z,100517.96
2022-07-27T14:19:31.235Z,100512.19
2022-07-27T14:22:03.479Z,100509.42
2022-07-27T14:24:38.067Z,100511.27
2022-07-27T14:27:10.628Z,100508.17
2022-07-27T14:29:42.658Z,100512.35
2022-07-27T14:32:14.576Z,100515.06
2022-07-27T14:34:46.383Z,100520.98
2022-07-27T14:37:18.153Z,100514.44
2022-07-27T14:39:49.976Z,100510.40
2022-07-27T14:42:23.861Z,100515.70
2022-07-27T14:44:55.678Z,100514.70
2022-07-27T14:47:27.420Z,100511.66
2022-07-27T14:49:59.345Z,100509.42
2022-07-27T14:52:31.209Z,100511.41
2022-07-27T14:55:02.963Z,100512.08
2022-07-27T14:57:33.910Z,100510.64
2022-07-27T15:00:10.340Z,100511.51
2022-07-27T15:02:42.819Z,100516.27
2022-07-27T15:05:15.590Z,100507.89
2022-07-27T15:07:47.572Z,100516.85
2022-07-27T15:10:20.651Z,100515.63
2022-07-27T15:12:52.814Z,100510.77
2022-07-27T15:15:26.673Z,100509.64
2022-07-27T15:17:58.781Z,100514.52
2022-07-27T15:20:30.776Z,100509.77
2022-07-27T15:23:03.356Z,100518.69
2022-07-27T15:25:35.265Z,100520.45
2022-07-27T15:28:07.888Z,100518.08
2022-07-27T15:30:40.208Z,100513.32
2022-07-27T15:33:12.069Z,100509.69
2022-07-27T15:35:43.940Z,100519.83
2022-07-27T15:38:15.731Z,100521.10
2022-07-27T15:40:47.691Z,100521.84
2022-07-27T15:43:20.926Z,100517.77
2022-07-27T15:45:53.235Z,100513.70
2022-07-27T15:48:23.754Z,100519.54
2022-07-27T15:50:58.773Z,100521.67
2022-07-27T15:53:32.035Z,100523.42
2022-07-27T15:56:03.748Z,100519.40
2022-07-27T15:58:35.980Z,100518.44
2022-07-27T16:01:12.055Z,100519.24
2022-07-27T16:03:44.892Z,100518.39
2022-07-27T16:06:21.671Z,100515.71
2022-07-27T16:08:54.101Z,100517.65
2022-07-27T16:11:27.042Z,100522.23
2022-07-27T16:14:00.163Z,100519.14
2022-07-27T16:16:31.362Z,100518.59
2022-07-27T16:19:12.965Z,100517.21
2022-07-27T16:21:55.133Z,100517.55
2022-07-27T16:24:28.929Z,100519.64
2022-07-27T16:27:05.277Z,100519.77
2022-07-27T16:29:37.717Z,100521.23
2022-07-27T16:32:08.182Z,100522.25
2022-07-27T16:34:41.241Z,100521.89
2022-07-27T16:37:14.081Z,100522.79
2022-07-27T16:39:46.419Z,100521.16
2022-07-27T16:42:18.388Z,100518.46
2022-07-27T16:44:50.757Z,100513.06
2022-07-27T16:47:22.621Z,100511.02
2022-07-27T16:49:55.191Z,100511.76
2022-07-27T16:52:27.597Z,100503.23
2022-07-27T16:54:59.323Z,100503.81
2022-07-27T16:57:31.287Z,100509.13
2022-07-27T17:00:05.377Z,100510.04
2022-07-27T17:02:37.535Z,100510.20
2022-07-27T17:05:09.942Z,100508.53
2022-07-27T17:07:42.868Z,100510.67
2022-07-27T17:10:26.966Z,100510.73
2022-07-27T17:12:59.893Z,100512.23
2022-07-27T17:15:33.822Z,100516.24
2022-07-27T17:18:08.485Z,100517.23
2022-07-27T17:20:41.469Z,100512.58
2022-07-27T17:23:13.256Z,100508.78
2022-07-27T17:25:45.378Z,100513.17
2022-07-27T17:28:17.340Z,100509.77
2022-07-27T17:30:49.337Z,100507.42
2022-07-27T17:33:21.452Z,100512.75
2022-07-27T17:35:53.352Z,100513.20
2022-07-27T17:38:25.232Z,100517.52
2022-07-27T17:40:59.893Z,100513.82
2022-07-27T17:43:31.690Z,100514.39
2022-07-27T17:46:04.975Z,100515.45
2022-07-27T17:48:37.144Z,100517.80
2022-07-27T17:51:10.685Z,100520.83
2022-07-27T17:53:42.506Z,100512.70
2022-07-27T17:56:14.325Z,100515.83
2022-07-27T17:58:47.435Z,100518.94
2022-07-27T18:01:46.705Z,100519.12
2022-07-27T18:04:15.764Z,100517.96
2022-07-27T18:06:47.582Z,100517.14
2022-07-27T18:09:19.870Z,100520.02
2022-07-27T18:11:51.728Z,100518.69
2022-07-27T18:14:23.854Z,100529.48
2022-07-27T18:16:57.031Z,100528.77
2022-07-27T18:19:29.616Z,100527.21
2022-07-27T18:22:02.647Z,100530.40
2022-07-27T18:24:35.778Z,100533.09
2022-07-27T18:27:07.732Z,100534.45
2022-07-27T18:29:39.911Z,100539.48
2022-07-27T18:32:12.040Z,100537.52
2022-07-27T18:34:43.740Z,100538.30
2022-07-27T18:37:19.783Z,100540.66
2022-07-27T18:39:51.757Z,100536.42
2022-07-27T18:42:23.571Z,100537.16
2022-07-27T18:44:55.533Z,100541.44
2022-07-27T18:47:27.741Z,100543.31
2022-07-27T18:50:01.223Z,100548.13
2022-07-27T18:52:33.327Z,100550.35
2022-07-27T18:55:06.643Z,100554.83
2022-07-27T18:57:38.518Z,100558.16
2022-07-27T19:00:12.834Z,100559.45
2022-07-27T19:02:45.604Z,100561.65
2022-07-27T19:05:22.257Z,100565.96
2022-07-27T19:08:04.707Z,100571.60
2022-07-27T19:10:39.318Z,100573.84
2022-07-27T19:13:11.163Z,100573.02
2022-07-27T19:15:45.014Z,100576.63
2022-07-27T19:18:17.090Z,100580.48
2022-07-27T19:20:49.031Z,100586.73
2022-07-27T19:23:20.973Z,100587.52
2022-07-27T19:26:00.380Z,100592.23
2022-07-27T19:28:32.728Z,100592.50
2022-07-27T19:31:03.305Z,100598.25
2022-07-27T19:33:35.511Z,100597.60
2022-07-27T19:36:08.492Z,100599.40
2022-07-27T19:38:40.355Z,100598.39
2022-07-27T19:41:12.391Z,100598.42
2022-07-27T19:43:44.172Z,100598.91
2022-07-27T19:46:16.187Z,100603.23
2022-07-27T19:48:48.450Z,100605.89
2022-07-27T19:51:20.452Z,100614.18
2022-07-27T19:53:53.019Z,100614.44
2022-07-27T19:56:25.177Z,100612.86
2022-07-27T19:58:57.444Z,100611.86
2022-07-27T20:01:29.562Z,100607.98
2022-07-27T20:04:01.988Z,100614.98
2022-07-27T20:06:34.704Z,100616.26
2022-07-27T20:09:07.207Z,100622.05
2022-07-27T20:11:39.554Z,100616.41
2022-07-27T20:14:11.491Z,100621.30
2022-07-27T20:16:44.485Z,100622.79
2022-07-27T20:19:17.013Z,100630.50
2022-07-27T20:21:47.753Z,100634.66
2022-07-27T20:24:19.616Z,100636.23
2022-07-27T20:26:51.350Z,100635.51
2022-07-27T20:29:24.302Z,100634.67
2022-07-27T20:31:57.376Z,100635.11
2022-07-27T20:34:30.203Z,100634.83
2022-07-27T20:37:02.254Z,100634.41
2022-07-27T20:39:34.321Z,100636.73
2022-07-27T20:42:07.819Z,100640.28
2022-07-27T20:44:40.269Z,100644.73
2022-07-27T20:47:14.688Z,100651.03
2022-07-27T20:49:47.761Z,100651.92
2022-07-27T20:52:20.107Z,100651.55
2022-07-27T20:54:52.907Z,100653.79
2022-07-27T20:57:25.346Z,100653.95
2022-07-27T20:59:57.618Z,100650.97
2022-07-27T21:02:29.719Z,100657.56
2022-07-27T21:05:01.474Z,100660.90
2022-07-27T21:07:33.279Z,100657.70
2022-07-27T21:10:05.542Z,100655.98
2022-07-27T21:12:37.622Z,100655.02
2022-07-27T21:15:13.410Z,100657.39
2022-07-27T21:17:45.749Z,100664.70
2022-07-27T21:20:17.908Z,100658.27
2022-07-27T21:23:10.062Z,100660.53
2022-07-27T21:25:44.163Z,100663.21
2022-07-27T21:28:18.346Z,100656.26
2022-07-27T21:30:50.574Z,100659.98
2022-07-27T21:33:22.331Z,100662.52
2022-07-27T21:35:54.044Z,100666.99
2022-07-27T21:38:25.961Z,100669.57
2022-07-27T21:40:57.778Z,100675.91
2022-07-27T21:43:29.510Z,100679.28
2022-07-27T21:46:01.499Z,100681.69
2022-07-27T21:48:34.180Z,100685.67
2022-07-27T21:51:07.160Z,100682.55
2022-07-27T21:53:37.315Z,100682.92
2022-07-27T21:56:09.244Z,100686.33
2022-07-27T21:58:41.638Z,100694.65
2022-07-27T22:01:14.455Z,100695.33
2022-07-27T22:03:47.264Z,100699.67
2022-07-27T22:06:17.786Z,100704.66
2022-07-27T22:08:49.769Z,100707.53
2022-07-27T22:11:21.609Z,100713.23
2022-07-27T22:13:53.366Z,100711.04
2022-07-27T22:16:25.121Z,100711.75
2022-07-27T22:18:57.346Z,100710.02
2022-07-27T22:21:29.719Z,100710.44
2022-07-27T22:24:01.381Z,100710.09
2022-07-27T22:26:33.150Z,100709.30
2022-07-27T22:29:04.795Z,100708.95
2022-07-27T22:31:36.581Z,100712.17
2022-07-27T22:34:08.529Z,100714.09
2022-07-27T22:36:40.274Z,100714.10
2022-07-27T22:39:12.914Z,100716.85
2022-07-27T22:41:43.018Z,100717.31
2022-07-27T22:44:15.973Z,100723.45
2022-07-27T22:46:52.358Z,100722.23
2022-07-27T22:49:24.951Z,100725.51
2022-07-27T22:51:57.757Z,100725.98
2022-07-27T22:54:29.419Z,100736.00
2022-07-27T22:57:01.232Z,100725.59
2022-07-27T22:59:33.009Z,100737.36
2022-07-27T23:02:04.989Z,100734.86
2022-07-27T23:04:36.937Z,100738.41
2022-07-27T23:07:08.601Z,100738.67
2022-07-27T23:09:41.028Z,100741.27
2022-07-27T23:12:13.086Z,100741.47
2022-07-27T23:14:49.259Z,100734.76
2022-07-27T23:17:21.477Z,100735.84
2022-07-27T23:19:53.479Z,100735.72
2022-07-27T23:22:26.357Z,100738.54
2022-07-27T23:24:58.075Z,100738.32
2022-07-27T23:27:29.866Z,100742.36
2022-07-27T23:30:01.534Z,100736.26
2022-07-27T23:32:33.884Z,100742.08
2022-07-27T23:35:06.080Z,100737.61
2022-07-27T23:37:37.850Z,100735.66
2022-07-27T23:40:11.494Z,100738.72
2022-07-27T23:42:43.297Z,100740.81
2022-07-27T23:45:15.350Z,100739.59
2022-07-27T23:47:47.301Z,100738.67
2022-07-27T23:50:20.012Z,100741.21
2022-07-27T23:52:52.108Z,100743.83
2022-07-27T23:55:23.735Z,100748.91
2022-07-27T23:57:58.723Z,100750.12
